createdAt,value
2022-08-27T00:01:53.073Z,5.88
2022-08-27T00:04:21.521Z,5.93
2022-08-27T00:06:49.843Z,6.47
2022-08-27T00:09:26.418Z,5.32
2022-08-27T00:11:55.721Z,6.43
2022-08-27T00:14:25.271Z,5.88
2022-08-27T00:16:53.706Z,6.45
2022-08-27T00:19:22.439Z,6.35
2022-08-27T00:21:51.119Z,5.97
2022-08-27T00:24:19.228Z,5.72
2022-08-27T00:26:47.537Z,6.60
2022-08-27T00:29:15.832Z,6.00
2022-08-27T00:31:45.430Z,6.05
2022-08-27T00:34:20.616Z,5.35
2022-08-27T00:36:48.940Z,6.32
2022-08-27T00:39:17.322Z,6.80
2022-08-27T00:41:45.673Z,6.85
2022-08-27T00:44:14.022Z,6.43
2022-08-27T00:46:47.040Z,7.60
2022-08-27T00:49:19.556Z,6.38
2022-08-27T00:51:50.409Z,6.15
2022-08-27T00:54:19.817Z,6.38
2022-08-27T00:56:51.480Z,6.53
2022-08-27T00:59:23.934Z,6.38
2022-08-27T01:04:37.673Z,6.05
2022-08-27T01:07:06.805Z,6.38
2022-08-27T01:09:35.598Z,6.65
2022-08-27T01:12:05.874Z,6.13
2022-08-27T01:14:34.353Z,7.03
2022-08-27T01:17:05.352Z,5.60
2022-08-27T01:19:36.764Z,6.25
2022-08-27T01:22:09.871Z,6.10
2022-08-27T01:24:53.552Z,7.03
2022-08-27T01:27:23.585Z,7.10
2022-08-27T01:29:52.168Z,6.75
2022-08-27T01:32:22.626Z,6.35
2022-08-27T01:34:51.528Z,6.63
2022-08-27T01:37:23.708Z,6.60
2022-08-27T01:39:55.334Z,7.25
2022-08-27T01:44:54.856Z,7.70
2022-08-27T01:47:30.275Z,6.95
2022-08-27T01:49:59.704Z,7.80
2022-08-27T01:52:29.970Z,7.68
2022-08-27T01:55:00.281Z,7.07
2022-08-27T01:57:29.281Z,7.38
2022-08-27T01:59:58.251Z,7.68
2022-08-27T02:02:27.687Z,7.82
2022-08-27T02:04:56.013Z,7.68
2022-08-27T02:07:24.140Z,7.45
2022-08-27T02:09:53.374Z,6.93
2022-08-27T02:12:23.312Z,7.65
2022-08-27T02:14:51.953Z,7.35
2022-08-27T02:17:20.379Z,7.55
2022-08-27T02:19:48.774Z,7.10
2022-08-27T02:22:17.128Z,7.78
2022-08-27T02:24:45.629Z,7.57
2022-08-27T02:27:14.230Z,7.35
2022-08-27T02:29:44.070Z,7.53
2022-08-27T02:32:22.733Z,7.50
2022-08-27T02:35:00.656Z,7.20
2022-08-27T02:37:29.149Z,7.00
2022-08-27T02:39:57.447Z,8.70
2022-08-27T02:42:25.829Z,7.65
2022-08-27T02:44:55.562Z,7.40
2022-08-27T02:47:23.932Z,6.90
2022-08-27T02:49:52.189Z,7.35
2022-08-27T02:52:24.916Z,7.18
2022-08-27T02:54:54.361Z,7.88
2022-08-27T02:57:22.945Z,8.02
2022-08-27T02:59:51.138Z,8.05
2022-08-27T03:02:21.582Z,7.30
2022-08-27T03:04:51.386Z,7.32
2022-08-27T03:07:19.910Z,7.65
2022-08-27T03:09:48.216Z,7.10
2022-08-27T03:12:17.207Z,6.60
2022-08-27T03:14:46.180Z,6.50
2022-08-27T03:17:31.814Z,7.50
2022-08-27T03:20:02.189Z,7.18
2022-08-27T03:22:30.382Z,7.10
2022-08-27T03:24:58.573Z,7.45
2022-08-27T03:27:26.981Z,7.50
2022-08-27T03:29:55.226Z,7.22
2022-08-27T03:32:23.336Z,6.97
2022-08-27T03:34:51.846Z,7.47
2022-08-27T03:37:21.492Z,7.95
2022-08-27T03:39:49.722Z,7.70
2022-08-27T03:42:18.144Z,8.40
2022-08-27T03:44:46.417Z,7.28
2022-08-27T03:47:14.644Z,7.63
2022-08-27T03:49:43.155Z,7.60
2022-08-27T03:52:11.741Z,7.45
2022-08-27T03:54:41.678Z,8.02
2022-08-27T03:57:10.746Z,7.22
2022-08-27T03:59:39.109Z,7.22
2022-08-27T04:02:07.382Z,7.60
2022-08-27T04:04:36.253Z,7.72
2022-08-27T04:07:05.180Z,7.35
2022-08-27T04:09:33.370Z,7.10
2022-08-27T04:12:03.714Z,6.50
2022-08-27T04:14:32.088Z,6.63
2022-08-27T04:17:00.822Z,6.68
2022-08-27T04:19:32.525Z,7.00
2022-08-27T04:22:01.946Z,7.43
2022-08-27T04:24:31.912Z,7.40
2022-08-27T04:27:00.372Z,6.35
2022-08-27T04:29:29.950Z,6.82
2022-08-27T04:31:58.814Z,6.30
2022-08-27T04:34:26.987Z,7.20
2022-08-27T04:36:56.915Z,6.50
2022-08-27T04:39:26.315Z,6.05
2022-08-27T04:41:56.380Z,6.55
2022-08-27T04:44:25.552Z,6.97
2022-08-27T04:46:58.936Z,6.68
2022-08-27T04:49:30.587Z,6.75
2022-08-27T04:52:00.659Z,6.32
2022-08-27T04:54:32.164Z,6.85
2022-08-27T04:57:02.945Z,6.45
2022-08-27T04:59:31.581Z,6.10
2022-08-27T05:02:03.624Z,6.35
2022-08-27T05:04:33.844Z,6.32
2022-08-27T05:07:02.304Z,5.93
2022-08-27T05:09:30.829Z,5.78
2022-08-27T05:11:59.155Z,6.00
2022-08-27T05:14:30.431Z,6.05
2022-08-27T05:16:59.120Z,6.22
2022-08-27T05:19:29.111Z,6.20
2022-08-27T05:21:57.434Z,6.32
2022-08-27T05:24:25.869Z,6.30
2022-08-27T05:26:54.649Z,5.63
2022-08-27T05:29:23.558Z,5.25
2022-08-27T05:31:51.973Z,5.40
2022-08-27T05:34:26.925Z,5.00
2022-08-27T05:36:57.105Z,5.35
2022-08-27T05:39:25.398Z,5.40
2022-08-27T05:41:58.029Z,5.25
2022-08-27T05:44:42.288Z,5.60
2022-08-27T05:47:11.246Z,5.10
2022-08-27T05:49:39.581Z,5.72
2022-08-27T05:52:12.023Z,5.90
2022-08-27T05:54:40.862Z,5.97
2022-08-27T05:57:09.037Z,6.25
2022-08-27T05:59:54.723Z,5.65
2022-08-27T06:02:23.253Z,6.40
2022-08-27T06:04:51.754Z,6.95
2022-08-27T06:07:21.655Z,5.80
2022-08-27T06:09:49.987Z,6.17
2022-08-27T06:12:18.273Z,5.70
2022-08-27T06:14:46.505Z,6.38
2022-08-27T06:17:14.913Z,5.97
2022-08-27T06:19:45.907Z,6.10
2022-08-27T06:22:15.208Z,5.78
2022-08-27T06:24:45.123Z,6.05
2022-08-27T06:27:14.565Z,5.87
2022-08-27T06:29:43.685Z,6.05
2022-08-27T06:32:13.490Z,6.18
2022-08-27T06:34:41.751Z,5.53
2022-08-27T06:37:10.447Z,6.00
2022-08-27T06:39:40.515Z,5.57
2022-08-27T06:42:11.969Z,5.63
2022-08-27T06:44:40.761Z,5.45
2022-08-27T06:47:08.907Z,4.90
2022-08-27T06:49:40.180Z,5.75
2022-08-27T06:52:08.546Z,6.07
2022-08-27T06:54:37.576Z,6.22
2022-08-27T06:57:06.081Z,6.10
2022-08-27T06:59:36.020Z,6.32
2022-08-27T07:02:06.889Z,5.57
2022-08-27T07:04:35.202Z,6.50
2022-08-27T07:07:05.061Z,6.43
2022-08-27T07:09:33.175Z,5.63
2022-08-27T07:12:02.015Z,5.95
2022-08-27T07:14:36.954Z,5.82
2022-08-27T07:17:10.740Z,5.78
2022-08-27T07:19:41.287Z,5.68
2022-08-27T07:22:10.992Z,6.13
2022-08-27T07:24:39.444Z,6.55
2022-08-27T07:27:07.985Z,5.75
2022-08-27T07:29:36.899Z,5.65
2022-08-27T07:32:05.553Z,6.00
2022-08-27T07:34:35.406Z,5.60
2022-08-27T07:37:03.791Z,5.40
2022-08-27T07:39:31.975Z,5.80
2022-08-27T07:42:17.638Z,6.10
2022-08-27T07:44:46.184Z,5.82
2022-08-27T07:47:14.383Z,5.30
2022-08-27T07:49:43.900Z,8.57
2022-08-27T07:52:13.068Z,5.45
2022-08-27T07:54:41.598Z,5.90
2022-08-27T07:57:10.274Z,5.10
2022-08-27T07:59:39.126Z,5.10
2022-08-27T08:02:07.381Z,5.50
2022-08-27T08:04:35.639Z,5.55
2022-08-27T08:07:05.493Z,6.43
2022-08-27T08:12:02.268Z,6.40
2022-08-27T08:14:32.284Z,6.10
2022-08-27T08:17:02.084Z,6.72
2022-08-27T08:19:32.114Z,6.65
2022-08-27T08:22:05.001Z,5.75
2022-08-27T08:24:35.638Z,6.65
2022-08-27T08:27:07.172Z,6.25
2022-08-27T08:29:36.909Z,6.68
2022-08-27T08:34:33.627Z,6.80
2022-08-27T08:37:01.830Z,7.28
2022-08-27T08:39:30.202Z,7.17
2022-08-27T08:42:01.139Z,7.10
2022-08-27T08:44:34.142Z,6.95
2022-08-27T08:47:10.534Z,7.30
2022-08-27T08:49:46.158Z,6.97
2022-08-27T08:52:31.261Z,6.53
2022-08-27T08:55:08.731Z,6.60
2022-08-27T08:57:42.456Z,6.45
2022-08-27T09:00:13.454Z,7.57
2022-08-27T09:02:50.648Z,7.18
2022-08-27T09:05:19.009Z,7.05
2022-08-27T09:08:05.153Z,6.50
2022-08-27T09:10:46.683Z,6.75
2022-08-27T09:13:23.360Z,6.80
2022-08-27T09:15:53.501Z,7.13
2022-08-27T09:18:21.843Z,6.13
2022-08-27T09:20:58.595Z,6.57
2022-08-27T09:23:30.006Z,8.10
2022-08-27T09:25:58.306Z,5.97
2022-08-27T09:28:47.594Z,7.20
2022-08-27T09:31:18.482Z,6.40
2022-08-27T09:33:56.645Z,5.95
2022-08-27T09:38:58.251Z,6.55
2022-08-27T09:41:29.364Z,6.43
2022-08-27T09:44:00.431Z,6.57
2022-08-27T09:46:29.264Z,6.22
2022-08-27T09:48:57.509Z,6.60
2022-08-27T09:51:27.841Z,5.88
2022-08-27T09:53:57.958Z,6.32
2022-08-27T09:56:30.337Z,6.05
2022-08-27T09:59:05.804Z,6.35
2022-08-27T10:01:36.089Z,6.88
2022-08-27T10:04:07.479Z,6.63
2022-08-27T10:06:36.239Z,7.13
2022-08-27T10:09:09.346Z,6.65
2022-08-27T10:11:41.451Z,7.00
2022-08-27T10:14:16.313Z,7.30
2022-08-27T10:16:58.101Z,7.50
2022-08-27T10:19:42.827Z,7.38
2022-08-27T10:22:18.114Z,7.28
2022-08-27T10:24:56.582Z,6.70
2022-08-27T10:27:29.710Z,6.93
2022-08-27T10:30:05.454Z,6.88
2022-08-27T10:32:55.582Z,6.32
2022-08-27T10:35:26.853Z,6.72
2022-08-27T10:38:04.112Z,5.72
2022-08-27T10:40:35.356Z,5.47
2022-08-27T10:43:15.603Z,5.90
2022-08-27T10:45:48.707Z,5.78
2022-08-27T10:48:27.142Z,5.50
2022-08-27T10:50:58.545Z,5.88
2022-08-27T10:53:33.836Z,5.63
2022-08-27T10:56:13.978Z,5.97
2022-08-27T10:58:53.520Z,5.50
2022-08-27T11:01:30.698Z,5.45
2022-08-27T11:04:03.895Z,5.38
2022-08-27T11:06:34.744Z,4.70
2022-08-27T11:09:08.310Z,4.50
2022-08-27T11:14:31.030Z,4.00
2022-08-27T11:17:04.816Z,3.85
2022-08-27T11:19:44.203Z,4.15
2022-08-27T11:22:25.956Z,4.40
2022-08-27T11:24:59.892Z,5.05
2022-08-27T11:27:32.176Z,4.22
2022-08-27T11:30:05.381Z,4.25
2022-08-27T11:32:45.032Z,3.70
2022-08-27T11:35:19.326Z,3.72
2022-08-27T11:38:27.642Z,3.08
2022-08-27T11:41:06.877Z,3.20
2022-08-27T11:43:36.912Z,3.35
2022-08-27T11:46:07.926Z,2.60
2022-08-27T11:48:39.891Z,3.08
2022-08-27T11:51:10.075Z,3.55
2022-08-27T11:53:51.959Z,2.97
2022-08-27T11:56:39.953Z,3.63
2022-08-27T11:59:20.361Z,3.78
2022-08-27T12:01:49.831Z,3.30
2022-08-27T12:04:26.027Z,3.50
2022-08-27T12:07:02.918Z,3.20
2022-08-27T12:09:31.288Z,3.28
2022-08-27T12:12:05.398Z,2.92
2022-08-27T12:14:44.742Z,3.30
2022-08-27T12:17:18.145Z,3.37
2022-08-27T12:19:57.193Z,3.20
2022-08-27T12:22:58.014Z,3.55
2022-08-27T12:25:26.936Z,4.15
2022-08-27T12:28:03.336Z,3.25
2022-08-27T12:30:33.975Z,3.65
2022-08-27T12:33:13.170Z,3.65
2022-08-27T12:35:46.242Z,3.55
2022-08-27T12:38:18.787Z,3.67
2022-08-27T12:40:50.806Z,3.63
2022-08-27T12:43:22.253Z,2.90
2022-08-27T12:45:52.419Z,3.50
2022-08-27T12:48:23.264Z,3.40
2022-08-27T12:53:43.478Z,4.03
2022-08-27T12:56:30.231Z,4.45
2022-08-27T12:59:08.794Z,8.57
2022-08-27T13:01:50.973Z,14.30
2022-08-27T13:04:22.973Z,12.32
2022-08-27T13:06:52.985Z,8.13
2022-08-27T13:09:29.082Z,7.28
2022-08-27T13:11:59.579Z,5.82
2022-08-27T13:17:00.661Z,4.80
2022-08-27T13:19:31.338Z,4.68
2022-08-27T13:22:02.704Z,4.22
2022-08-27T13:27:01.236Z,4.03
2022-08-27T13:29:29.841Z,3.65
2022-08-27T13:31:59.781Z,3.78
2022-08-27T13:34:29.893Z,3.97
2022-08-27T13:37:04.106Z,3.47
2022-08-27T13:39:34.508Z,4.10
2022-08-27T13:42:05.172Z,3.67
2022-08-27T13:44:36.608Z,3.88
2022-08-27T13:47:07.402Z,3.78
2022-08-27T13:49:40.214Z,3.90
2022-08-27T13:52:21.644Z,3.60
2022-08-27T13:54:51.112Z,3.78
2022-08-27T13:57:27.481Z,2.95
2022-08-27T13:59:55.887Z,3.30
2022-08-27T14:02:28.096Z,3.10
2022-08-27T14:05:11.423Z,2.80
2022-08-27T14:07:45.492Z,3.53
2022-08-27T14:10:31.385Z,3.03
2022-08-27T14:13:01.590Z,3.08
2022-08-27T14:15:33.979Z,2.92
2022-08-27T14:18:03.400Z,2.83
2022-08-27T14:20:31.991Z,5.85
2022-08-27T14:23:01.494Z,11.20
2022-08-27T14:25:29.735Z,8.65
2022-08-27T14:27:58.401Z,6.90
2022-08-27T14:30:29.708Z,4.38
2022-08-27T14:33:00.493Z,3.00
2022-08-27T14:35:29.726Z,2.70
2022-08-27T14:37:59.005Z,2.90
2022-08-27T14:40:28.910Z,2.50
2022-08-27T14:42:58.196Z,3.20
2022-08-27T14:45:26.454Z,2.45
2022-08-27T14:48:01.979Z,3.97
2022-08-27T14:50:30.569Z,5.30
2022-08-27T14:52:58.928Z,3.95
2022-08-27T14:55:28.462Z,3.15
2022-08-27T14:57:56.649Z,3.30
2022-08-27T15:00:25.186Z,3.63
2022-08-27T15:02:56.007Z,3.17
2022-08-27T15:05:26.464Z,3.25
2022-08-27T15:07:57.504Z,3.80
2022-08-27T15:10:26.568Z,3.38
2022-08-27T15:12:56.063Z,3.20
2022-08-27T15:15:24.963Z,2.97
2022-08-27T15:17:53.167Z,3.50
2022-08-27T15:20:21.645Z,3.78
2022-08-27T15:22:52.294Z,3.75
2022-08-27T15:25:20.842Z,3.40
2022-08-27T15:27:49.301Z,3.67
2022-08-27T15:30:19.988Z,3.25
2022-08-27T15:32:49.359Z,2.97
2022-08-27T15:35:20.420Z,3.80
2022-08-27T15:37:48.748Z,3.03
2022-08-27T15:40:18.870Z,3.70
2022-08-27T15:42:48.286Z,3.00
2022-08-27T15:45:17.203Z,2.88
2022-08-27T15:47:46.908Z,3.25
2022-08-27T15:50:15.080Z,3.25
2022-08-27T15:52:44.826Z,2.97
2022-08-27T15:55:21.852Z,3.20
2022-08-27T15:57:50.905Z,3.80
2022-08-27T16:00:20.276Z,3.67
2022-08-27T16:02:50.310Z,3.38
2022-08-27T16:07:47.904Z,3.80
2022-08-27T16:10:16.566Z,3.60
2022-08-27T16:12:45.012Z,3.85
2022-08-27T16:15:13.681Z,3.78
2022-08-27T16:17:42.749Z,3.75
2022-08-27T16:20:15.702Z,3.65
2022-08-27T16:22:44.204Z,3.88
2022-08-27T16:25:17.781Z,3.70
2022-08-27T16:27:47.047Z,2.92
2022-08-27T16:30:15.772Z,3.42
2022-08-27T16:32:45.766Z,3.90
2022-08-27T16:35:16.116Z,3.80
2022-08-27T16:37:45.116Z,3.97
2022-08-27T16:40:15.035Z,4.15
2022-08-27T16:42:45.696Z,3.60
2022-08-27T16:45:14.936Z,3.75
2022-08-27T16:47:56.981Z,3.70
2022-08-27T16:50:36.293Z,4.47
2022-08-27T16:53:06.923Z,5.00
2022-08-27T16:55:37.683Z,4.25
2022-08-27T16:58:06.411Z,4.28
2022-08-27T17:00:34.578Z,4.30
2022-08-27T17:03:05.461Z,4.50
2022-08-27T17:08:05.186Z,4.88
2022-08-27T17:10:36.469Z,5.65
2022-08-27T17:13:05.185Z,5.03
2022-08-27T17:15:33.737Z,5.47
2022-08-27T17:18:03.119Z,5.55
2022-08-27T17:20:33.555Z,4.88
2022-08-27T17:23:04.331Z,4.82
2022-08-27T17:28:00.788Z,4.90
2022-08-27T17:30:29.290Z,5.50
2022-08-27T17:32:57.800Z,5.57
2022-08-27T17:35:26.017Z,4.93
2022-08-27T17:37:54.727Z,5.32
2022-08-27T17:40:24.815Z,5.38
2022-08-27T17:42:53.066Z,5.47
2022-08-27T17:45:21.450Z,5.57
2022-08-27T17:47:49.533Z,5.05
2022-08-27T17:50:17.980Z,5.38
2022-08-27T17:52:46.501Z,5.82
2022-08-27T17:55:14.687Z,5.78
2022-08-27T17:57:44.500Z,5.63
2022-08-27T18:00:14.968Z,5.60
2022-08-27T18:02:46.324Z,5.75
2022-08-27T18:05:16.519Z,5.10
2022-08-27T18:07:45.106Z,5.50
2022-08-27T18:10:15.201Z,5.90
2022-08-27T18:12:45.228Z,5.82
2022-08-27T18:15:17.659Z,6.30
2022-08-27T18:17:46.299Z,6.10
2022-08-27T18:20:16.635Z,5.55
2022-08-27T18:22:48.611Z,5.60
2022-08-27T18:25:18.812Z,6.30
2022-08-27T18:27:50.721Z,6.00
2022-08-27T18:30:19.290Z,5.88
2022-08-27T18:32:47.502Z,5.70
2022-08-27T18:35:18.147Z,6.60
2022-08-27T18:37:47.324Z,6.38
2022-08-27T18:40:17.048Z,6.70
2022-08-27T18:42:45.552Z,6.13
2022-08-27T18:45:17.092Z,6.95
2022-08-27T18:47:45.911Z,6.75
2022-08-27T18:50:17.792Z,6.22
2022-08-27T18:52:46.904Z,5.95
2022-08-27T18:55:17.996Z,7.07
2022-08-27T18:57:46.181Z,6.00
2022-08-27T19:00:19.051Z,5.75
2022-08-27T19:02:52.004Z,5.72
2022-08-27T19:05:22.972Z,8.40
2022-08-27T19:07:51.311Z,6.82
2022-08-27T19:10:19.644Z,7.57
2022-08-27T19:12:48.006Z,7.47
2022-08-27T19:15:17.956Z,8.25
2022-08-27T19:17:49.792Z,9.27
2022-08-27T19:20:18.763Z,8.20
2022-08-27T19:22:47.843Z,8.55
2022-08-27T19:25:16.726Z,9.38
2022-08-27T19:27:45.770Z,9.38
2022-08-27T19:30:15.406Z,9.57
2022-08-27T19:32:45.148Z,9.73
2022-08-27T19:35:15.079Z,10.10
2022-08-27T19:37:48.452Z,9.65
2022-08-27T19:40:22.259Z,9.68
2022-08-27T19:42:50.850Z,11.40
2022-08-27T19:45:22.979Z,10.57
2022-08-27T19:47:53.380Z,10.30
2022-08-27T19:50:22.617Z,11.10
2022-08-27T19:52:51.201Z,11.13
2022-08-27T19:55:19.862Z,9.95
2022-08-27T19:57:48.499Z,9.98
2022-08-27T20:00:19.677Z,10.23
2022-08-27T20:02:50.614Z,9.55
2022-08-27T20:07:49.841Z,9.32
2022-08-27T20:10:18.255Z,10.02
2022-08-27T20:12:46.571Z,9.15
2022-08-27T20:15:15.633Z,8.85
2022-08-27T20:17:45.318Z,9.32
2022-08-27T20:20:14.120Z,8.77
2022-08-27T20:22:44.402Z,8.80
2022-08-27T20:25:13.775Z,8.65
2022-08-27T20:27:42.495Z,9.68
2022-08-27T20:30:13.062Z,9.35
2022-08-27T20:32:41.497Z,9.23
2022-08-27T20:35:11.012Z,8.90
2022-08-27T20:37:42.162Z,8.70
2022-08-27T20:40:15.203Z,8.57
2022-08-27T20:42:44.525Z,8.65
2022-08-27T20:45:12.979Z,8.07
2022-08-27T20:47:41.458Z,7.80
2022-08-27T20:50:11.806Z,7.57
2022-08-27T20:52:40.319Z,7.30
2022-08-27T20:55:10.167Z,7.70
2022-08-27T20:58:05.866Z,7.10
2022-08-27T21:00:37.747Z,7.40
2022-08-27T21:03:06.037Z,7.85
2022-08-27T21:05:35.634Z,7.55
2022-08-27T21:08:04.192Z,7.50
2022-08-27T21:10:32.461Z,7.38
2022-08-27T21:13:04.718Z,6.95
2022-08-27T21:15:33.599Z,6.88
2022-08-27T21:18:01.731Z,7.30
2022-08-27T21:20:29.821Z,7.05
2022-08-27T21:22:58.157Z,6.57
2022-08-27T21:25:27.323Z,7.18
2022-08-27T21:27:57.009Z,7.28
2022-08-27T21:30:27.302Z,7.70
2022-08-27T21:32:56.225Z,7.03
2022-08-27T21:35:26.539Z,7.32
2022-08-27T21:37:55.773Z,6.37
2022-08-27T21:40:25.309Z,6.70
2022-08-27T21:42:53.984Z,6.30
2022-08-27T21:45:22.654Z,5.97
2022-08-27T21:47:52.611Z,6.13
2022-08-27T21:50:21.854Z,5.80
2022-08-27T21:52:50.793Z,6.65
2022-08-27T21:55:19.536Z,6.20
2022-08-27T21:57:47.586Z,5.53
2022-08-27T22:00:37.524Z,5.90
2022-08-27T22:03:10.207Z,6.22
2022-08-27T22:05:40.974Z,6.38
2022-08-27T22:08:09.658Z,5.27
2022-08-27T22:10:38.350Z,6.35
2022-08-27T22:13:06.943Z,5.90
2022-08-27T22:15:35.271Z,5.65
2022-08-27T22:18:03.491Z,5.65
2022-08-27T22:20:33.517Z,5.93
2022-08-27T22:23:01.652Z,5.60
2022-08-27T22:25:29.880Z,6.07
2022-08-27T22:27:58.258Z,6.50
2022-08-27T22:30:26.405Z,6.30
2022-08-27T22:32:54.591Z,6.13
2022-08-27T22:35:23.460Z,5.90
2022-08-27T22:37:55.917Z,6.47
2022-08-27T22:40:25.878Z,7.25
2022-08-27T22:42:56.212Z,6.97
2022-08-27T22:45:25.296Z,7.20
2022-08-27T22:47:53.673Z,6.60
2022-08-27T22:50:22.760Z,7.03
2022-08-27T22:52:51.306Z,6.68
2022-08-27T22:55:23.359Z,6.15
2022-08-27T22:57:53.731Z,5.97
2022-08-27T23:00:24.681Z,5.50
2022-08-27T23:02:53.154Z,5.15
2022-08-27T23:05:21.637Z,5.65
2022-08-27T23:07:50.318Z,5.55
2022-08-27T23:10:21.799Z,5.75
2022-08-27T23:12:49.895Z,6.25
2022-08-27T23:15:19.633Z,5.63
2022-08-27T23:17:47.879Z,5.75
2022-08-27T23:20:16.655Z,5.55
2022-08-27T23:22:45.747Z,6.30
2022-08-27T23:25:31.886Z,6.45
2022-08-27T23:28:04.700Z,6.35
2022-08-27T23:30:34.937Z,6.72
2022-08-27T23:33:03.206Z,6.05
2022-08-27T23:35:31.350Z,6.68
2022-08-27T23:37:59.417Z,6.10
2022-08-27T23:40:27.806Z,6.38
2022-08-27T23:42:56.053Z,6.05
2022-08-27T23:45:27.053Z,6.30
2022-08-27T23:50:25.177Z,6.15
2022-08-27T23:53:03.116Z,7.00
2022-08-27T23:55:31.115Z,6.57
2022-08-27T23:58:00.409Z,6.43
